sensor_id;sensor_type;location;lat;lon;timestamp;pressure;altitude;pressure_sealevel;temperature;humidity
64095;BME280;50353;51.420;5.682;2023-04-29T00:00:56;101135.19;;;11.96;94.17
64095;BME280;50353;51.420;5.682;2023-04-29T00:03:22;101139.28;;;11.71;94.40
64095;BME280;50353;51.420;5.682;2023-04-29T00:05:47;101134.47;;;11.33;96.59
64095;BME280;50353;51.420;5.682;2023-04-29T00:08:12;101139.59;;;11.50;96.01
64095;BME280;50353;51.420;5.682;2023-04-29T00:10:37;101142.50;;;11.76;96.13
64095;BME280;50353;51.420;5.682;2023-04-29T00:13:03;101140.44;;;11.81;95.32
64095;BME280;50353;51.420;5.682;2023-04-29T00:15:28;101145.75;;;12.10;93.35
64095;BME280;50353;51.420;5.682;2023-04-29T00:17:54;101145.63;;;11.38;97.46
64095;BME280;50353;51.420;5.682;2023-04-29T00:20:19;101145.53;;;11.70;95.94
64095;BME280;50353;51.420;5.682;2023-04-29T00:22:45;101139.19;;;11.28;98.15
64095;BME280;50353;51.420;5.682;2023-04-29T00:25:10;101152.72;;;11.82;94.38
64095;BME280;50353;51.420;5.682;2023-04-29T00:27:36;101149.38;;;11.04;98.03
64095;BME280;50353;51.420;5.682;2023-04-29T00:30:02;101152.63;;;11.09;98.14
64095;BME280;50353;51.420;5.682;2023-04-29T00:32:28;101160.66;;;11.07;98.98
64095;BME280;50353;51.420;5.682;2023-04-29T00:34:53;101171.91;;;11.72;93.88
64095;BME280;50353;51.420;5.682;2023-04-29T00:37:19;101169.34;;;11.70;91.02
64095;BME280;50353;51.420;5.682;2023-04-29T00:39:44;101164.41;;;11.49;94.22
64095;BME280;50353;51.420;5.682;2023-04-29T00:42:10;101159.56;;;11.26;92.71
64095;BME280;50353;51.420;5.682;2023-04-29T00:44:36;101166.00;;;11.52;92.25
64095;BME280;50353;51.420;5.682;2023-04-29T00:47:01;101165.94;;;11.68;90.74
64095;BME280;50353;51.420;5.682;2023-04-29T00:49:26;101165.03;;;11.39;93.55
64095;BME280;50353;51.420;5.682;2023-04-29T00:51:53;101173.63;;;11.87;91.13
64095;BME280;50353;51.420;5.682;2023-04-29T00:54:18;101174.41;;;11.59;91.64
64095;BME280;50353;51.420;5.682;2023-04-29T00:56:57;101178.13;;;11.56;91.94
64095;BME280;50353;51.420;5.682;2023-04-29T00:59:23;101179.56;;;11.62;89.43
64095;BME280;50353;51.420;5.682;2023-04-29T01:01:56;101181.22;;;11.48;92.07
64095;BME280;50353;51.420;5.682;2023-04-29T01:04:21;101185.59;;;10.87;95.45
64095;BME280;50353;51.420;5.682;2023-04-29T01:07:16;101177.88;;;10.98;95.34
64095;BME280;50353;51.420;5.682;2023-04-29T01:10:00;101182.84;;;11.51;93.05
64095;BME280;50353;51.420;5.682;2023-04-29T01:15:09;101189.28;;;11.15;93.58
64095;BME280;50353;51.420;5.682;2023-04-29T01:17:40;101184.56;;;11.52;91.81
64095;BME280;50353;51.420;5.682;2023-04-29T01:20:08;101198.41;;;11.41;91.78
64095;BME280;50353;51.420;5.682;2023-04-29T01:22:34;101195.47;;;11.15;94.01
64095;BME280;50353;51.420;5.682;2023-04-29T01:24:59;101200.47;;;11.20;93.24
64095;BME280;50353;51.420;5.682;2023-04-29T01:32:51;101196.78;;;11.39;91.71
64095;BME280;50353;51.420;5.682;2023-04-29T01:35:43;101206.75;;;11.03;91.46
64095;BME280;50353;51.420;5.682;2023-04-29T01:38:16;101209.44;;;10.54;94.16
64095;BME280;50353;51.420;5.682;2023-04-29T01:40:58;101213.00;;;11.32;89.95
64095;BME280;50353;51.420;5.682;2023-04-29T01:43:29;101215.75;;;11.31;91.26
64095;BME280;50353;51.420;5.682;2023-04-29T01:45:57;101217.84;;;11.10;92.52
64095;BME280;50353;51.420;5.682;2023-04-29T01:48:23;101217.91;;;11.08;93.12
64095;BME280;50353;51.420;5.682;2023-04-29T01:50:49;101217.69;;;11.27;91.47
64095;BME280;50353;51.420;5.682;2023-04-29T01:53:14;101221.13;;;10.97;92.30
64095;BME280;50353;51.420;5.682;2023-04-29T01:55:40;101220.88;;;10.70;95.26
64095;BME280;50353;51.420;5.682;2023-04-29T01:58:05;101224.47;;;11.01;94.14
64095;BME280;50353;51.420;5.682;2023-04-29T02:00:30;101220.91;;;11.02;94.42
64095;BME280;50353;51.420;5.682;2023-04-29T02:02:55;101218.91;;;11.22;92.64
64095;BME280;50353;51.420;5.682;2023-04-29T02:05:21;101235.31;;;10.80;94.19
64095;BME280;50353;51.420;5.682;2023-04-29T02:07:46;101231.91;;;10.94;94.00
64095;BME280;50353;51.420;5.682;2023-04-29T02:10:11;101231.38;;;10.56;95.95
64095;BME280;50353;51.420;5.682;2023-04-29T02:12:37;101232.00;;;11.09;91.27
64095;BME280;50353;51.420;5.682;2023-04-29T02:15:03;101238.22;;;10.92;93.57
64095;BME280;50353;51.420;5.682;2023-04-29T02:17:28;101234.13;;;11.02;93.64
64095;BME280;50353;51.420;5.682;2023-04-29T02:19:53;101239.56;;;10.67;95.23
64095;BME280;50353;51.420;5.682;2023-04-29T02:22:19;101243.09;;;10.99;92.62
64095;BME280;50353;51.420;5.682;2023-04-29T02:24:45;101245.22;;;11.09;92.96
64095;BME280;50353;51.420;5.682;2023-04-29T02:27:10;101259.78;;;11.00;93.14
64095;BME280;50353;51.420;5.682;2023-04-29T02:29:36;101249.81;;;10.73;93.33
64095;BME280;50353;51.420;5.682;2023-04-29T02:32:01;101253.34;;;11.06;93.05
64095;BME280;50353;51.420;5.682;2023-04-29T02:34:26;101250.00;;;11.02;93.45
64095;BME280;50353;51.420;5.682;2023-04-29T02:36:52;101261.66;;;10.82;94.31
64095;BME280;50353;51.420;5.682;2023-04-29T02:39:17;101259.38;;;10.92;93.79
64095;BME280;50353;51.420;5.682;2023-04-29T02:41:44;101262.78;;;10.94;94.37
64095;BME280;50353;51.420;5.682;2023-04-29T02:44:10;101261.34;;;11.20;93.58
64095;BME280;50353;51.420;5.682;2023-04-29T02:46:35;101265.09;;;11.00;92.96
64095;BME280;50353;51.420;5.682;2023-04-29T02:49:01;101271.63;;;10.61;94.68
64095;BME280;50353;51.420;5.682;2023-04-29T02:51:31;101264.09;;;10.87;95.10
64095;BME280;50353;51.420;5.682;2023-04-29T02:53:57;101274.03;;;10.81;95.55
64095;BME280;50353;51.420;5.682;2023-04-29T02:56:22;101275.69;;;10.84;94.85
64095;BME280;50353;51.420;5.682;2023-04-29T02:58:48;101282.50;;;10.88;95.00
64095;BME280;50353;51.420;5.682;2023-04-29T03:01:13;101282.25;;;10.43;97.02
64095;BME280;50353;51.420;5.682;2023-04-29T03:03:38;101281.66;;;11.04;93.11
64095;BME280;50353;51.420;5.682;2023-04-29T03:06:04;101283.13;;;10.60;94.96
64095;BME280;50353;51.420;5.682;2023-04-29T03:08:29;101283.13;;;10.60;96.26
64095;BME280;50353;51.420;5.682;2023-04-29T03:10:54;101287.69;;;10.40;97.41
64095;BME280;50353;51.420;5.682;2023-04-29T03:13:20;101281.59;;;10.21;99.32
64095;BME280;50353;51.420;5.682;2023-04-29T03:15:45;101287.63;;;10.58;97.37
64095;BME280;50353;51.420;5.682;2023-04-29T03:18:10;101289.78;;;11.01;94.15
64095;BME280;50353;51.420;5.682;2023-04-29T03:20:36;101293.34;;;10.99;92.71
64095;BME280;50353;51.420;5.682;2023-04-29T03:23:01;101297.28;;;10.92;94.53
64095;BME280;50353;51.420;5.682;2023-04-29T03:25:26;101295.41;;;10.61;96.29
64095;BME280;50353;51.420;5.682;2023-04-29T03:27:52;101297.84;;;10.81;95.64
64095;BME280;50353;51.420;5.682;2023-04-29T03:30:18;101299.63;;;10.81;97.01
64095;BME280;50353;51.420;5.682;2023-04-29T03:32:43;101304.59;;;10.87;97.27
64095;BME280;50353;51.420;5.682;2023-04-29T03:35:08;101307.50;;;10.82;97.13
64095;BME280;50353;51.420;5.682;2023-04-29T03:37:35;101313.38;;;10.88;96.69
64095;BME280;50353;51.420;5.682;2023-04-29T03:40:01;101311.69;;;10.87;98.50
64095;BME280;50353;51.420;5.682;2023-04-29T03:42:26;101311.03;;;10.65;98.91
64095;BME280;50353;51.420;5.682;2023-04-29T03:44:52;101307.56;;;10.30;100.00
64095;BME280;50353;51.420;5.682;2023-04-29T03:47:17;101309.50;;;10.44;100.00
64095;BME280;50353;51.420;5.682;2023-04-29T03:49:43;101316.72;;;10.58;100.00
64095;BME280;50353;51.420;5.682;2023-04-29T03:52:08;101316.00;;;10.72;99.58
64095;BME280;50353;51.420;5.682;2023-04-29T03:54:33;101323.06;;;10.38;100.00
64095;BME280;50353;51.420;5.682;2023-04-29T03:56:59;101317.91;;;10.35;100.00
64095;BME280;50353;51.420;5.682;2023-04-29T03:59:25;101321.53;;;10.67;100.00
64095;BME280;50353;51.420;5.682;2023-04-29T04:01:50;101323.78;;;10.57;100.00
64095;BME280;50353;51.420;5.682;2023-04-29T04:04:18;101324.25;;;10.30;100.00
64095;BME280;50353;51.420;5.682;2023-04-29T04:06:43;101332.09;;;10.32;100.00
64095;BME280;50353;51.420;5.682;2023-04-29T04:09:15;101327.72;;;10.66;100.00
64095;BME280;50353;51.420;5.682;2023-04-29T04:11:40;101330.25;;;10.52;100.00
64095;BME280;50353;51.420;5.682;2023-04-29T04:14:06;101337.25;;;10.53;100.00
64095;BME280;50353;51.420;5.682;2023-04-29T04:16:31;101335.78;;;10.29;100.00
64095;BME280;50353;51.420;5.682;2023-04-29T04:18:57;101341.56;;;10.38;100.00
64095;BME280;50353;51.420;5.682;2023-04-29T04:21:23;101339.81;;;10.72;100.00
64095;BME280;50353;51.420;5.682;2023-04-29T04:23:49;101338.94;;;10.54;100.00
64095;BME280;50353;51.420;5.682;2023-04-29T04:26:15;101341.50;;;10.73;100.00
64095;BME280;50353;51.420;5.682;2023-04-29T04:28:40;101339.38;;;10.79;100.00
64095;BME280;50353;51.420;5.682;2023-04-29T04:31:06;101342.84;;;10.46;100.00
64095;BME280;50353;51.420;5.682;2023-04-29T04:33:32;101350.78;;;10.46;100.00
64095;BME280;50353;51.420;5.682;2023-04-29T04:35:58;101345.97;;;10.55;100.00
64095;BME280;50353;51.420;5.682;2023-04-29T04:38:23;101353.09;;;10.18;100.00
64095;BME280;50353;51.420;5.682;2023-04-29T04:40:50;101354.44;;;10.44;100.00
64095;BME280;50353;51.420;5.682;2023-04-29T04:43:15;101360.97;;;10.72;100.00
64095;BME280;50353;51.420;5.682;2023-04-29T04:45:41;101358.53;;;10.67;100.00
64095;BME280;50353;51.420;5.682;2023-04-29T04:48:06;101370.66;;;10.54;100.00
64095;BME280;50353;51.420;5.682;2023-04-29T04:50:32;101372.00;;;10.62;100.00
64095;BME280;50353;51.420;5.682;2023-04-29T04:52:57;101380.44;;;10.34;100.00
64095;BME280;50353;51.420;5.682;2023-04-29T04:55:23;101385.06;;;10.48;100.00
64095;BME280;50353;51.420;5.682;2023-04-29T04:57:49;101389.97;;;10.56;100.00
64095;BME280;50353;51.420;5.682;2023-04-29T05:00:14;101392.97;;;10.83;99.07
64095;BME280;50353;51.420;5.682;2023-04-29T05:02:40;101396.97;;;10.57;100.00
64095;BME280;50353;51.420;5.682;2023-04-29T05:05:06;101399.63;;;10.57;99.94
64095;BME280;50353;51.420;5.682;2023-04-29T05:07:32;101404.66;;;10.61;100.00
64095;BME280;50353;51.420;5.682;2023-04-29T05:10:00;101399.75;;;10.71;100.00
64095;BME280;50353;51.420;5.682;2023-04-29T05:12:27;101412.19;;;10.69;100.00
64095;BME280;50353;51.420;5.682;2023-04-29T05:14:54;101411.97;;;10.20;100.00
64095;BME280;50353;51.420;5.682;2023-04-29T05:17:20;101410.94;;;10.59;100.00
64095;BME280;50353;51.420;5.682;2023-04-29T05:19:45;101407.22;;;10.63;100.00
64095;BME280;50353;51.420;5.682;2023-04-29T05:22:10;101414.22;;;10.64;100.00
64095;BME280;50353;51.420;5.682;2023-04-29T05:24:36;101415.56;;;10.55;100.00
64095;BME280;50353;51.420;5.682;2023-04-29T05:27:01;101418.66;;;10.63;100.00
64095;BME280;50353;51.420;5.682;2023-04-29T05:29:28;101417.41;;;10.71;100.00
64095;BME280;50353;51.420;5.682;2023-04-29T05:31:54;101427.28;;;10.67;100.00
64095;BME280;50353;51.420;5.682;2023-04-29T05:34:19;101421.91;;;10.86;98.94
64095;BME280;50353;51.420;5.682;2023-04-29T05:36:45;101421.59;;;10.75;99.85
64095;BME280;50353;51.420;5.682;2023-04-29T05:39:10;101425.25;;;10.90;98.47
64095;BME280;50353;51.420;5.682;2023-04-29T05:41:36;101420.50;;;10.79;98.90
64095;BME280;50353;51.420;5.682;2023-04-29T05:44:01;101430.72;;;10.52;100.00
64095;BME280;50353;51.420;5.682;2023-04-29T05:46:26;101433.75;;;10.61;100.00
64095;BME280;50353;51.420;5.682;2023-04-29T05:48:52;101441.19;;;10.88;98.30
64095;BME280;50353;51.420;5.682;2023-04-29T05:51:17;101446.50;;;10.88;98.57
64095;BME280;50353;51.420;5.682;2023-04-29T05:53:42;101449.69;;;10.77;99.45
64095;BME280;50353;51.420;5.682;2023-04-29T05:56:08;101460.72;;;10.68;100.00
64095;BME280;50353;51.420;5.682;2023-04-29T05:58:34;101458.84;;;10.70;100.00
64095;BME280;50353;51.420;5.682;2023-04-29T06:00:59;101466.00;;;10.68;100.00
64095;BME280;50353;51.420;5.682;2023-04-29T06:03:25;101467.56;;;10.72;98.51
64095;BME280;50353;51.420;5.682;2023-04-29T06:05:50;101467.09;;;10.64;99.97
64095;BME280;50353;51.420;5.682;2023-04-29T06:08:16;101474.88;;;10.67;100.00
64095;BME280;50353;51.420;5.682;2023-04-29T06:10:41;101469.75;;;10.64;100.00
64095;BME280;50353;51.420;5.682;2023-04-29T06:13:06;101474.69;;;10.35;100.00
64095;BME280;50353;51.420;5.682;2023-04-29T06:15:32;101478.66;;;10.44;100.00
64095;BME280;50353;51.420;5.682;2023-04-29T06:17:57;101481.66;;;10.55;99.03
64095;BME280;50353;51.420;5.682;2023-04-29T06:20:22;101479.22;;;10.86;96.66
64095;BME280;50353;51.420;5.682;2023-04-29T06:22:47;101486.44;;;10.28;100.00
64095;BME280;50353;51.420;5.682;2023-04-29T06:25:13;101499.47;;;10.69;99.34
64095;BME280;50353;51.420;5.682;2023-04-29T06:27:38;101490.19;;;10.60;100.00
64095;BME280;50353;51.420;5.682;2023-04-29T06:30:04;101496.19;;;10.64;100.00
64095;BME280;50353;51.420;5.682;2023-04-29T06:32:30;101504.75;;;10.69;100.00
64095;BME280;50353;51.420;5.682;2023-04-29T06:34:55;101501.56;;;10.62;100.00
64095;BME280;50353;51.420;5.682;2023-04-29T06:37:21;101501.25;;;10.86;99.26
64095;BME280;50353;51.420;5.682;2023-04-29T06:39:46;101507.22;;;10.55;99.37
64095;BME280;50353;51.420;5.682;2023-04-29T06:42:11;101516.19;;;10.14;100.00
64095;BME280;50353;51.420;5.682;2023-04-29T06:44:36;101524.16;;;10.51;100.00
64095;BME280;50353;51.420;5.682;2023-04-29T06:47:02;101527.41;;;10.38;100.00
64095;BME280;50353;51.420;5.682;2023-04-29T06:49:27;101526.78;;;10.51;100.00
64095;BME280;50353;51.420;5.682;2023-04-29T06:51:52;101528.44;;;10.34;100.00
64095;BME280;50353;51.420;5.682;2023-04-29T06:54:18;101529.53;;;10.49;100.00
64095;BME280;50353;51.420;5.682;2023-04-29T06:56:43;101532.75;;;10.73;100.00
64095;BME280;50353;51.420;5.682;2023-04-29T06:59:09;101535.16;;;10.22;100.00
64095;BME280;50353;51.420;5.682;2023-04-29T07:01:36;101539.69;;;10.39;100.00
64095;BME280;50353;51.420;5.682;2023-04-29T07:04:02;101551.81;;;10.43;100.00
64095;BME280;50353;51.420;5.682;2023-04-29T07:06:28;101553.81;;;10.38;100.00
64095;BME280;50353;51.420;5.682;2023-04-29T07:08:53;101545.16;;;10.54;100.00
64095;BME280;50353;51.420;5.682;2023-04-29T07:11:18;101553.44;;;10.65;100.00
64095;BME280;50353;51.420;5.682;2023-04-29T07:13:44;101546.69;;;10.58;99.16
64095;BME280;50353;51.420;5.682;2023-04-29T07:16:18;101563.94;;;10.67;100.00
64095;BME280;50353;51.420;5.682;2023-04-29T07:18:50;101562.97;;;10.50;100.00
64095;BME280;50353;51.420;5.682;2023-04-29T07:21:15;101562.09;;;10.49;100.00
64095;BME280;50353;51.420;5.682;2023-04-29T07:23:41;101568.34;;;10.66;100.00
64095;BME280;50353;51.420;5.682;2023-04-29T07:26:14;101567.88;;;10.75;100.00
64095;BME280;50353;51.420;5.682;2023-04-29T07:28:40;101568.16;;;10.52;100.00
64095;BME280;50353;51.420;5.682;2023-04-29T07:31:06;101572.22;;;10.59;100.00
64095;BME280;50353;51.420;5.682;2023-04-29T07:33:32;101567.16;;;10.91;100.00
64095;BME280;50353;51.420;5.682;2023-04-29T07:35:57;101573.38;;;11.25;100.00
64095;BME280;50353;51.420;5.682;2023-04-29T07:38:23;101575.00;;;10.92;100.00
64095;BME280;50353;51.420;5.682;2023-04-29T07:40:48;101575.41;;;11.20;100.00
64095;BME280;50353;51.420;5.682;2023-04-29T07:43:13;101577.41;;;10.97;100.00
64095;BME280;50353;51.420;5.682;2023-04-29T07:45:39;101583.81;;;11.10;100.00
64095;BME280;50353;51.420;5.682;2023-04-29T07:48:05;101587.69;;;11.21;99.99
64095;BME280;50353;51.420;5.682;2023-04-29T07:50:34;101591.56;;;10.96;100.00
64095;BME280;50353;51.420;5.682;2023-04-29T07:53:00;101588.47;;;11.23;100.00
64095;BME280;50353;51.420;5.682;2023-04-29T07:55:26;101591.28;;;11.37;98.13
64095;BME280;50353;51.420;5.682;2023-04-29T07:57:51;101596.25;;;11.26;100.00
64095;BME280;50353;51.420;5.682;2023-04-29T08:00:17;101597.56;;;11.52;98.82
64095;BME280;50353;51.420;5.682;2023-04-29T08:02:43;101589.03;;;11.63;98.17
64095;BME280;50353;51.420;5.682;2023-04-29T08:05:08;101605.53;;;11.35;96.40
64095;BME280;50353;51.420;5.682;2023-04-29T08:07:34;101604.63;;;11.69;96.23
64095;BME280;50353;51.420;5.682;2023-04-29T08:09:59;101607.63;;;11.79;96.92
64095;BME280;50353;51.420;5.682;2023-04-29T08:12:24;101603.53;;;11.56;95.98
64095;BME280;50353;51.420;5.682;2023-04-29T08:14:50;101608.84;;;11.56;97.12
64095;BME280;50353;51.420;5.682;2023-04-29T08:17:15;101608.16;;;11.86;97.30
64095;BME280;50353;51.420;5.682;2023-04-29T08:19:40;101605.25;;;11.74;95.34
64095;BME280;50353;51.420;5.682;2023-04-29T08:22:05;101610.09;;;11.48;95.36
64095;BME280;50353;51.420;5.682;2023-04-29T08:24:31;101598.69;;;11.64;95.65
64095;BME280;50353;51.420;5.682;2023-04-29T08:26:57;101609.47;;;11.43;95.01
64095;BME280;50353;51.420;5.682;2023-04-29T08:29:23;101611.41;;;11.57;94.90
64095;BME280;50353;51.420;5.682;2023-04-29T08:31:49;101611.47;;;11.73;95.16
64095;BME280;50353;51.420;5.682;2023-04-29T08:34:14;101613.19;;;11.74;95.40
64095;BME280;50353;51.420;5.682;2023-04-29T08:36:40;101619.22;;;11.60;94.04
64095;BME280;50353;51.420;5.682;2023-04-29T08:39:05;101608.72;;;11.75;95.07
64095;BME280;50353;51.420;5.682;2023-04-29T08:41:31;101624.53;;;11.76;93.95
64095;BME280;50353;51.420;5.682;2023-04-29T08:43:58;101617.97;;;12.01;92.50
64095;BME280;50353;51.420;5.682;2023-04-29T08:46:25;101623.13;;;11.87;90.74
64095;BME280;50353;51.420;5.682;2023-04-29T08:48:51;101627.06;;;12.13;90.71
64095;BME280;50353;51.420;5.682;2023-04-29T08:51:17;101626.31;;;12.11;90.29
64095;BME280;50353;51.420;5.682;2023-04-29T08:53:42;101622.03;;;12.56;88.09
64095;BME280;50353;51.420;5.682;2023-04-29T08:56:12;101623.34;;;11.99;89.35
64095;BME280;50353;51.420;5.682;2023-04-29T08:58:40;101627.41;;;12.23;90.36
64095;BME280;50353;51.420;5.682;2023-04-29T09:01:08;101630.59;;;12.45;88.12
64095;BME280;50353;51.420;5.682;2023-04-29T09:03:42;101631.13;;;12.68;88.02
64095;BME280;50353;51.420;5.682;2023-04-29T09:06:09;101632.91;;;12.51;87.75
64095;BME280;50353;51.420;5.682;2023-04-29T09:08:36;101636.41;;;12.52;88.05
64095;BME280;50353;51.420;5.682;2023-04-29T09:11:02;101640.53;;;12.58;87.84
64095;BME280;50353;51.420;5.682;2023-04-29T09:13:29;101642.84;;;12.48;88.34
64095;BME280;50353;51.420;5.682;2023-04-29T09:15:55;101644.06;;;13.05;86.77
64095;BME280;50353;51.420;5.682;2023-04-29T09:18:44;101648.19;;;13.10;86.10
64095;BME280;50353;51.420;5.682;2023-04-29T09:21:20;101649.38;;;13.05;82.96
64095;BME280;50353;51.420;5.682;2023-04-29T09:23:47;101647.50;;;13.07;82.90
64095;BME280;50353;51.420;5.682;2023-04-29T09:26:14;101646.06;;;12.85;82.00
64095;BME280;50353;51.420;5.682;2023-04-29T09:28:39;101652.75;;;12.76;85.80
64095;BME280;50353;51.420;5.682;2023-04-29T09:31:08;101653.88;;;12.56;84.70
64095;BME280;50353;51.420;5.682;2023-04-29T09:33:53;101650.53;;;12.68;84.43
64095;BME280;50353;51.420;5.682;2023-04-29T09:39:06;101654.63;;;13.06;86.86
64095;BME280;50353;51.420;5.682;2023-04-29T09:44:16;101654.94;;;13.00;84.45
64095;BME280;50353;51.420;5.682;2023-04-29T09:46:42;101660.66;;;13.24;83.91
64095;BME280;50353;51.420;5.682;2023-04-29T09:49:21;101661.78;;;13.20;82.73
64095;BME280;50353;51.420;5.682;2023-04-29T09:51:58;101664.84;;;13.28;84.41
64095;BME280;50353;51.420;5.682;2023-04-29T09:54:26;101657.03;;;13.41;82.07
64095;BME280;50353;51.420;5.682;2023-04-29T09:56:56;101673.44;;;13.48;79.74
64095;BME280;50353;51.420;5.682;2023-04-29T09:59:22;101674.00;;;13.39;81.46
64095;BME280;50353;51.420;5.682;2023-04-29T10:01:50;101670.69;;;13.49;82.31
64095;BME280;50353;51.420;5.682;2023-04-29T10:04:17;101678.31;;;13.56;80.82
64095;BME280;50353;51.420;5.682;2023-04-29T10:06:44;101674.09;;;14.11;80.76
64095;BME280;50353;51.420;5.682;2023-04-29T10:09:13;101672.88;;;14.16;78.33
64095;BME280;50353;51.420;5.682;2023-04-29T10:11:46;101681.22;;;14.53;76.46
64095;BME280;50353;51.420;5.682;2023-04-29T10:14:14;101676.59;;;13.99;77.28
64095;BME280;50353;51.420;5.682;2023-04-29T10:16:45;101684.16;;;13.91;78.00
64095;BME280;50353;51.420;5.682;2023-04-29T10:19:14;101684.22;;;13.75;77.56
64095;BME280;50353;51.420;5.682;2023-04-29T10:21:42;101688.22;;;13.68;77.04
64095;BME280;50353;51.420;5.682;2023-04-29T10:24:09;101682.91;;;13.68;78.07
64095;BME280;50353;51.420;5.682;2023-04-29T10:26:36;101694.66;;;13.64;78.33
64095;BME280;50353;51.420;5.682;2023-04-29T10:29:04;101691.56;;;13.86;78.23
64095;BME280;50353;51.420;5.682;2023-04-29T10:31:30;101688.75;;;13.59;79.71
64095;BME280;50353;51.420;5.682;2023-04-29T10:33:57;101692.72;;;13.96;77.15
64095;BME280;50353;51.420;5.682;2023-04-29T10:36:24;101692.19;;;13.75;75.91
64095;BME280;50353;51.420;5.682;2023-04-29T10:38:54;101690.47;;;13.60;78.91
64095;BME280;50353;51.420;5.682;2023-04-29T10:41:20;101700.72;;;13.66;77.80
64095;BME280;50353;51.420;5.682;2023-04-29T10:43:49;101699.53;;;13.72;80.08
64095;BME280;50353;51.420;5.682;2023-04-29T10:48:43;101697.56;;;14.47;76.16
64095;BME280;50353;51.420;5.682;2023-04-29T10:51:08;101693.28;;;14.59;76.22
64095;BME280;50353;51.420;5.682;2023-04-29T10:53:34;101689.09;;;14.69;72.74
64095;BME280;50353;51.420;5.682;2023-04-29T10:56:07;101687.81;;;14.90;73.96
64095;BME280;50353;51.420;5.682;2023-04-29T10:58:35;101696.81;;;15.01;72.48
64095;BME280;50353;51.420;5.682;2023-04-29T11:01:01;101696.28;;;14.82;73.98
64095;BME280;50353;51.420;5.682;2023-04-29T11:04:02;101696.78;;;14.74;74.01
64095;BME280;50353;51.420;5.682;2023-04-29T11:09:07;101691.94;;;14.66;71.66
64095;BME280;50353;51.420;5.682;2023-04-29T11:14:41;101697.94;;;14.70;72.32
64095;BME280;50353;51.420;5.682;2023-04-29T11:17:15;101697.53;;;14.76;74.04
64095;BME280;50353;51.420;5.682;2023-04-29T11:19:42;101695.47;;;14.67;73.47
64095;BME280;50353;51.420;5.682;2023-04-29T11:27:14;101696.50;;;14.79;69.72
64095;BME280;50353;51.420;5.682;2023-04-29T11:29:39;101700.72;;;14.68;69.84
64095;BME280;50353;51.420;5.682;2023-04-29T11:32:06;101702.59;;;14.66;71.51
64095;BME280;50353;51.420;5.682;2023-04-29T11:34:31;101704.78;;;14.74;71.14
64095;BME280;50353;51.420;5.682;2023-04-29T11:36:57;101701.44;;;14.70;73.03
64095;BME280;50353;51.420;5.682;2023-04-29T11:39:22;101698.72;;;14.99;71.04
64095;BME280;50353;51.420;5.682;2023-04-29T11:41:49;101708.97;;;15.06;70.68
64095;BME280;50353;51.420;5.682;2023-04-29T11:44:20;101704.34;;;14.95;68.28
64095;BME280;50353;51.420;5.682;2023-04-29T11:46:46;101705.41;;;14.92;67.43
64095;BME280;50353;51.420;5.682;2023-04-29T11:49:12;101711.91;;;15.01;67.16
64095;BME280;50353;51.420;5.682;2023-04-29T11:51:37;101711.38;;;14.96;66.59
64095;BME280;50353;51.420;5.682;2023-04-29T11:54:02;101713.63;;;15.02;68.85
64095;BME280;50353;51.420;5.682;2023-04-29T11:56:28;101710.97;;;15.02;68.17
64095;BME280;50353;51.420;5.682;2023-04-29T11:58:57;101715.00;;;14.95;68.15
64095;BME280;50353;51.420;5.682;2023-04-29T12:01:24;101711.50;;;14.80;68.72
64095;BME280;50353;51.420;5.682;2023-04-29T12:03:49;101713.72;;;14.44;70.38
64095;BME280;50353;51.420;5.682;2023-04-29T12:06:15;101714.09;;;14.52;69.01
64095;BME280;50353;51.420;5.682;2023-04-29T12:08:40;101711.22;;;14.56;69.27
64095;BME280;50353;51.420;5.682;2023-04-29T12:11:06;101713.81;;;14.43;68.36
64095;BME280;50353;51.420;5.682;2023-04-29T12:13:32;101712.69;;;14.47;69.38
64095;BME280;50353;51.420;5.682;2023-04-29T12:16:00;101711.03;;;14.59;69.99
64095;BME280;50353;51.420;5.682;2023-04-29T12:18:27;101716.06;;;14.49;67.88
64095;BME280;50353;51.420;5.682;2023-04-29T12:20:53;101710.97;;;14.60;68.09
64095;BME280;50353;51.420;5.682;2023-04-29T12:23:21;101712.09;;;14.56;71.11
64095;BME280;50353;51.420;5.682;2023-04-29T12:25:52;101723.16;;;14.64;67.77
64095;BME280;50353;51.420;5.682;2023-04-29T12:28:18;101715.69;;;14.69;70.15
64095;BME280;50353;51.420;5.682;2023-04-29T12:30:47;101719.50;;;14.65;69.14
64095;BME280;50353;51.420;5.682;2023-04-29T12:33:21;101716.28;;;14.75;70.08
64095;BME280;50353;51.420;5.682;2023-04-29T12:35:55;101719.03;;;14.73;69.64
64095;BME280;50353;51.420;5.682;2023-04-29T12:38:25;101718.66;;;14.79;69.22
64095;BME280;50353;51.420;5.682;2023-04-29T12:41:03;101714.00;;;15.10;69.82
64095;BME280;50353;51.420;5.682;2023-04-29T12:43:32;101719.31;;;15.10;67.53
64095;BME280;50353;51.420;5.682;2023-04-29T12:46:02;101722.22;;;15.20;66.96
64095;BME280;50353;51.420;5.682;2023-04-29T12:48:31;101720.69;;;15.43;66.19
64095;BME280;50353;51.420;5.682;2023-04-29T12:50:57;101720.31;;;15.22;65.78
64095;BME280;50353;51.420;5.682;2023-04-29T12:53:24;101726.84;;;15.03;64.27
64095;BME280;50353;51.420;5.682;2023-04-29T12:55:50;101722.88;;;15.24;66.47
64095;BME280;50353;51.420;5.682;2023-04-29T12:58:16;101723.31;;;15.17;65.73
64095;BME280;50353;51.420;5.682;2023-04-29T13:00:41;101727.72;;;15.31;66.32
64095;BME280;50353;51.420;5.682;2023-04-29T13:03:06;101729.69;;;15.55;66.34
64095;BME280;50353;51.420;5.682;2023-04-29T13:05:32;101728.34;;;15.75;64.88
64095;BME280;50353;51.420;5.682;2023-04-29T13:07:57;101730.88;;;15.24;64.91
64095;BME280;50353;51.420;5.682;2023-04-29T13:10:23;101732.47;;;15.53;65.03
64095;BME280;50353;51.420;5.682;2023-04-29T13:12:48;101730.06;;;15.36;65.72